createdAt,value
2022-10-11T00:00:08.324Z,102278.31
2022-10-11T00:02:35.486Z,102284.44
2022-10-11T00:05:02.258Z,102282.44
2022-10-11T00:07:29.313Z,102280.56
2022-10-11T00:09:55.843Z,102271.13
2022-10-11T00:12:22.736Z,102277.25
2022-10-11T00:14:49.789Z,102269.22
2022-10-11T00:17:16.450Z,102257.78
2022-10-11T00:19:43.112Z,102271.59
2022-10-11T00:22:09.712Z,102271.22
2022-10-11T00:24:36.319Z,102278.78
2022-10-11T00:27:02.913Z,102282.94
2022-10-11T00:29:29.489Z,102282.00
2022-10-11T00:31:56.362Z,102283.06
2022-10-11T00:34:23.301Z,102288.38
2022-10-11T00:36:49.983Z,102288.72
2022-10-11T00:39:16.590Z,102295.34
2022-10-11T00:41:43.438Z,102302.28
2022-10-11T00:44:18.961Z,102316.22
2022-10-11T00:46:59.198Z,102302.28
2022-10-11T00:49:40.888Z,102317.13
2022-10-11T00:52:40.411Z,102323.66
2022-10-11T00:55:12.890Z,102323.78
2022-10-11T00:57:44.058Z,102325.69
2022-10-11T01:00:13.643Z,102321.78
2022-10-11T01:02:41.703Z,102309.41
2022-10-11T01:05:29.260Z,102312.69
2022-10-11T01:07:59.962Z,102319.31
2022-10-11T01:10:27.646Z,102326.25
2022-10-11T01:13:21.326Z,102329.78
2022-10-11T01:15:55.368Z,102322.13
2022-10-11T01:18:40.144Z,102329.66
2022-10-11T01:21:15.249Z,102337.50
2022-10-11T01:24:08.905Z,102324.59
2022-10-11T01:26:56.296Z,102330.41
2022-10-11T01:29:41.349Z,102329.22
2022-10-11T01:32:33.524Z,102330.72
2022-10-11T01:35:10.679Z,102334.38
2022-10-11T01:37:41.915Z,102338.38
2022-10-11T01:40:18.936Z,102338.38
2022-10-11T01:42:46.811Z,102341.06
2022-10-11T01:45:17.312Z,102340.47
2022-10-11T01:47:45.828Z,102335.78
2022-10-11T01:50:46.473Z,102337.69
2022-10-11T01:53:44.467Z,102338.63
2022-10-11T01:56:22.894Z,102339.09
2022-10-11T01:59:17.627Z,102341.91
2022-10-11T02:01:56.436Z,102342.28
2022-10-11T02:04:48.850Z,102340.50
2022-10-11T02:07:44.586Z,102346.53
2022-10-11T02:10:20.180Z,102344.50
2022-10-11T02:12:56.437Z,102339.56
2022-10-11T02:15:27.334Z,102348.97
2022-10-11T02:17:57.953Z,102340.81
2022-10-11T02:20:28.470Z,102351.69
2022-10-11T02:23:12.047Z,102346.19
2022-10-11T02:25:40.499Z,102348.81
2022-10-11T02:28:16.548Z,102353.91
2022-10-11T02:30:46.288Z,102351.50
2022-10-11T02:33:17.495Z,102349.72
2022-10-11T02:35:49.436Z,102354.13
2022-10-11T02:38:26.832Z,102360.00
2022-10-11T02:41:20.861Z,102350.03
2022-10-11T02:43:57.761Z,102343.03
2022-10-11T02:46:26.407Z,102354.47
2022-10-11T02:48:53.943Z,102346.06
2022-10-11T02:51:20.558Z,102345.63
2022-10-11T02:53:47.161Z,102348.97
2022-10-11T02:56:13.655Z,102347.78
2022-10-11T02:58:40.487Z,102347.13
2022-10-11T03:01:07.123Z,102348.81
2022-10-11T03:03:33.651Z,102360.00
2022-10-11T03:06:03.241Z,102350.28
2022-10-11T03:08:30.025Z,102348.22
2022-10-11T03:10:56.896Z,102349.66
2022-10-11T03:13:23.894Z,102356.28
2022-10-11T03:16:02.320Z,102360.50
2022-10-11T03:18:29.919Z,102358.59
2022-10-11T03:20:56.683Z,102360.69
2022-10-11T03:23:23.335Z,102368.19
2022-10-11T03:25:51.910Z,102354.28
2022-10-11T03:28:19.334Z,102364.84
2022-10-11T03:30:50.485Z,102363.78
2022-10-11T03:33:17.395Z,102374.94
2022-10-11T03:35:45.612Z,102367.63
2022-10-11T03:38:18.933Z,102367.63
2022-10-11T03:40:45.770Z,102368.28
2022-10-11T03:43:12.938Z,102374.22
2022-10-11T03:45:42.524Z,102363.34
2022-10-11T03:48:09.981Z,102380.19
2022-10-11T03:50:37.561Z,102375.56
2022-10-11T03:53:05.690Z,102371.63
2022-10-11T03:55:33.151Z,102382.59
2022-10-11T03:58:00.680Z,102377.41
2022-10-11T04:00:27.309Z,102377.53
2022-10-11T04:02:53.847Z,102380.97
2022-10-11T04:05:20.433Z,102384.91
2022-10-11T04:07:47.421Z,102386.69
2022-10-11T04:10:14.292Z,102385.78
2022-10-11T04:12:40.888Z,102395.06
2022-10-11T04:15:07.999Z,102394.69
2022-10-11T04:17:34.567Z,102390.53
2022-10-11T04:20:01.593Z,102387.13
2022-10-11T04:22:28.170Z,102398.22
2022-10-11T04:24:54.690Z,102397.25
2022-10-11T04:27:21.505Z,102399.97
2022-10-11T04:29:48.295Z,102403.94
2022-10-11T04:32:15.009Z,102404.25
2022-10-11T04:34:41.610Z,102408.84
2022-10-11T04:37:08.154Z,102405.53
2022-10-11T04:39:37.106Z,102412.91
2022-10-11T04:42:03.982Z,102413.25
2022-10-11T04:44:31.339Z,102416.13
2022-10-11T04:46:58.078Z,102416.75
2022-10-11T04:49:24.986Z,102419.88
2022-10-11T04:51:51.755Z,102418.09
2022-10-11T04:54:18.660Z,102418.19
2022-10-11T04:56:45.208Z,102418.50
2022-10-11T04:59:12.145Z,102414.44
2022-10-11T05:01:39.183Z,102407.00
2022-10-11T05:04:05.980Z,102415.47
2022-10-11T05:06:32.644Z,102412.88
2022-10-11T05:09:00.585Z,102419.81
2022-10-11T05:11:27.352Z,102415.69
2022-10-11T05:13:54.048Z,102416.94
2022-10-11T05:16:20.914Z,102409.22
2022-10-11T05:18:47.686Z,102432.84
2022-10-11T05:21:17.856Z,102424.88
2022-10-11T05:23:45.156Z,102438.84
2022-10-11T05:26:11.708Z,102430.25
2022-10-11T05:28:38.814Z,102427.88
2022-10-11T05:31:06.165Z,102436.75
2022-10-11T05:33:33.593Z,102441.75
2022-10-11T05:36:00.627Z,102434.91
2022-10-11T05:38:27.752Z,102438.25
2022-10-11T05:40:54.700Z,102445.78
2022-10-11T05:43:21.328Z,102441.78
2022-10-11T05:45:48.073Z,102442.81
2022-10-11T05:48:14.767Z,102437.72
2022-10-11T05:50:41.437Z,102446.94
2022-10-11T05:53:08.077Z,102443.00
2022-10-11T05:55:42.523Z,102452.13
2022-10-11T05:58:13.230Z,102455.06
2022-10-11T06:00:40.586Z,102457.72
2022-10-11T06:03:08.873Z,102465.16
2022-10-11T06:05:35.694Z,102464.31
2022-10-11T06:08:03.921Z,102450.00
2022-10-11T06:10:30.583Z,102463.91
2022-10-11T06:12:57.625Z,102457.72
2022-10-11T06:15:24.887Z,102454.91
2022-10-11T06:17:51.471Z,102454.84
2022-10-11T06:20:18.194Z,102467.41
2022-10-11T06:22:44.848Z,102461.78
2022-10-11T06:25:11.806Z,102477.25
2022-10-11T06:27:38.583Z,102482.34
2022-10-11T06:30:06.077Z,102476.22
2022-10-11T06:32:32.860Z,102487.78
2022-10-11T06:34:59.518Z,102477.91
2022-10-11T06:37:26.075Z,102484.34
2022-10-11T06:39:52.715Z,102476.31
2022-10-11T06:42:19.319Z,102475.41
2022-10-11T06:44:46.183Z,102492.19
2022-10-11T06:47:13.104Z,102500.59
2022-10-11T06:49:39.756Z,102494.13
2022-10-11T06:52:06.407Z,102497.34
2022-10-11T06:54:33.050Z,102496.47
2022-10-11T06:56:59.843Z,102498.28
2022-10-11T06:59:26.608Z,102501.19
2022-10-11T07:01:53.380Z,102503.56
2022-10-11T07:04:19.976Z,102506.50
2022-10-11T07:06:46.517Z,102506.25
2022-10-11T07:09:13.109Z,102505.69
2022-10-11T07:11:39.742Z,102504.28
2022-10-11T07:14:08.068Z,102501.31
2022-10-11T07:16:37.430Z,102513.88
2022-10-11T07:19:07.424Z,102512.56
2022-10-11T07:21:35.639Z,102513.03
2022-10-11T07:24:02.769Z,102524.06
2022-10-11T07:26:35.307Z,102533.41
2022-10-11T07:29:04.994Z,102522.81
2022-10-11T07:31:31.902Z,102530.72
2022-10-11T07:33:58.538Z,102535.47
2022-10-11T07:36:25.472Z,102530.41
2022-10-11T07:38:52.398Z,102536.69
2022-10-11T07:41:19.841Z,102541.03
2022-10-11T07:43:50.899Z,102551.19
2022-10-11T07:46:18.448Z,102535.31
2022-10-11T07:48:45.057Z,102538.59
2022-10-11T07:51:15.337Z,102544.09
2022-10-11T07:53:47.318Z,102528.66
2022-10-11T07:56:20.942Z,102536.53
2022-10-11T07:58:57.115Z,102547.25
2022-10-11T08:01:24.540Z,102546.53
2022-10-11T08:03:51.696Z,102547.44
2022-10-11T08:06:21.584Z,102536.09
2022-10-11T08:08:48.841Z,102543.28
2022-10-11T08:11:24.241Z,102538.16
2022-10-11T08:13:51.228Z,102547.50
2022-10-11T08:16:18.405Z,102541.91
2022-10-11T08:18:45.165Z,102546.53
2022-10-11T08:21:14.850Z,102541.19
2022-10-11T08:23:42.048Z,102548.09
2022-10-11T08:26:09.785Z,102544.97
2022-10-11T08:28:37.656Z,102551.56
2022-10-11T08:31:04.944Z,102552.69
2022-10-11T08:33:31.703Z,102558.47
2022-10-11T08:35:58.903Z,102557.47
2022-10-11T08:38:25.674Z,102565.31
2022-10-11T08:40:55.618Z,102563.25
2022-10-11T08:43:53.143Z,102564.81
2022-10-11T08:46:26.215Z,102577.00
2022-10-11T08:48:53.215Z,102568.19
2022-10-11T08:52:04.722Z,102578.38
2022-10-11T08:54:44.588Z,102578.19
2022-10-11T08:57:19.394Z,102585.03
2022-10-11T09:00:07.214Z,102581.06
2022-10-11T09:03:08.661Z,102579.53
2022-10-11T09:05:53.582Z,102581.69
2022-10-11T09:08:31.474Z,102578.91
2022-10-11T09:11:06.246Z,102574.78
2022-10-11T09:13:52.537Z,102584.78
2022-10-11T09:16:51.866Z,102572.75
2022-10-11T09:19:39.904Z,102573.09
2022-10-11T09:22:38.716Z,102579.38
2022-10-11T09:25:18.204Z,102573.25
2022-10-11T09:28:02.960Z,102579.03
2022-10-11T09:30:30.980Z,102573.16
2022-10-11T09:33:21.086Z,102585.19
2022-10-11T09:35:50.504Z,102579.38
2022-10-11T09:38:41.188Z,102582.06
2022-10-11T09:41:26.960Z,102580.94
2022-10-11T09:43:54.314Z,102573.50
2022-10-11T09:46:22.995Z,102574.28
2022-10-11T09:48:51.595Z,102577.44
2022-10-11T09:51:24.016Z,102573.97
2022-10-11T09:54:01.594Z,102587.16
2022-10-11T09:56:30.869Z,102581.03
2022-10-11T09:59:27.215Z,102585.91
2022-10-11T10:02:12.807Z,102581.94
2022-10-11T10:05:00.143Z,102576.53
2022-10-11T10:07:28.165Z,102574.44
2022-10-11T10:09:55.035Z,102582.38
2022-10-11T10:12:27.502Z,102579.75
2022-10-11T10:15:07.046Z,102568.28
2022-10-11T10:17:35.974Z,102584.34
2022-10-11T10:20:05.523Z,102575.66
2022-10-11T10:22:37.916Z,102573.91
2022-10-11T10:25:08.112Z,102569.38
2022-10-11T10:27:35.298Z,102575.47
2022-10-11T10:30:13.932Z,102578.59
2022-10-11T10:32:56.987Z,102569.72
2022-10-11T10:35:45.663Z,102570.38
2022-10-11T10:38:15.402Z,102570.72
2022-10-11T10:40:49.908Z,102567.59
2022-10-11T10:43:19.433Z,102566.47
2022-10-11T10:46:12.568Z,102563.19
2022-10-11T10:49:34.530Z,102562.22
2022-10-11T10:52:05.294Z,102563.84
2022-10-11T10:54:44.080Z,102569.28
2022-10-11T10:57:20.843Z,102556.78
2022-10-11T11:00:13.599Z,102559.56
2022-10-11T11:02:50.112Z,102553.63
2022-10-11T11:05:48.353Z,102564.69
2022-10-11T11:08:21.319Z,102554.81
2022-10-11T11:11:15.613Z,102558.22
2022-10-11T11:13:55.926Z,102554.59
2022-10-11T11:16:37.444Z,102553.88
2022-10-11T11:19:35.437Z,102547.31
2022-10-11T11:22:05.709Z,102550.25
2022-10-11T11:25:08.871Z,102543.66
2022-10-11T11:27:50.652Z,102542.63
2022-10-11T11:30:30.247Z,102546.56
2022-10-11T11:33:18.309Z,102540.84
2022-10-11T11:35:50.043Z,102539.84
2022-10-11T11:38:29.216Z,102541.75
2022-10-11T11:41:02.181Z,102539.22
2022-10-11T11:43:53.771Z,102529.50
2022-10-11T11:46:29.328Z,102524.78
2022-10-11T11:49:01.845Z,102518.94
2022-10-11T11:51:36.088Z,102520.34
2022-10-11T11:54:22.790Z,102528.13
2022-10-11T11:57:15.850Z,102521.75
2022-10-11T11:59:51.388Z,102527.16
2022-10-11T12:02:45.501Z,102514.09
2022-10-11T12:05:15.150Z,102515.56
2022-10-11T12:08:10.550Z,102508.34
2022-10-11T12:10:53.695Z,102506.69
2022-10-11T12:13:29.833Z,102501.41
2022-10-11T12:16:11.442Z,102500.94
2022-10-11T12:18:56.851Z,102493.56
2022-10-11T12:21:37.899Z,102505.75
2022-10-11T12:24:19.657Z,102504.59
2022-10-11T12:26:58.500Z,102502.41
2022-10-11T12:29:46.578Z,102508.03
2022-10-11T12:32:28.643Z,102506.50
2022-10-11T12:35:34.321Z,102497.00
2022-10-11T12:38:14.624Z,102498.16
2022-10-11T12:40:43.628Z,102502.50
2022-10-11T12:43:24.133Z,102490.47
2022-10-11T12:45:51.161Z,102484.25
2022-10-11T12:48:22.652Z,102491.69
2022-10-11T12:51:08.024Z,102487.56
2022-10-11T12:54:02.272Z,102487.03
2022-10-11T12:56:59.379Z,102484.59
2022-10-11T12:59:26.149Z,102482.31
2022-10-11T13:01:55.483Z,102480.84
2022-10-11T13:04:26.619Z,102482.47
2022-10-11T13:06:56.846Z,102476.69
2022-10-11T13:09:37.123Z,102477.03
2022-10-11T13:12:19.798Z,102471.31
2022-10-11T13:14:56.708Z,102466.16
2022-10-11T13:17:38.045Z,102468.97
2022-10-11T13:20:19.339Z,102464.38
2022-10-11T13:22:49.805Z,102461.81
2022-10-11T13:25:23.831Z,102468.69
2022-10-11T13:27:53.375Z,102469.63
2022-10-11T13:30:29.674Z,102460.47
2022-10-11T13:32:57.423Z,102449.44
2022-10-11T13:35:32.987Z,102451.75
2022-10-11T13:38:00.423Z,102451.66
2022-10-11T13:40:28.108Z,102453.03
2022-10-11T13:42:55.589Z,102448.13
2022-10-11T13:45:24.678Z,102449.03
2022-10-11T13:47:53.422Z,102453.13
2022-10-11T13:50:31.980Z,102448.31
2022-10-11T13:53:01.895Z,102450.84
2022-10-11T13:55:47.324Z,102447.31
2022-10-11T13:58:27.552Z,102449.19
2022-10-11T14:01:00.535Z,102443.13
2022-10-11T14:03:39.038Z,102443.59
2022-10-11T14:06:06.993Z,102446.84
2022-10-11T14:08:38.868Z,102442.63
2022-10-11T14:11:10.340Z,102437.56
2022-10-11T14:13:48.044Z,102433.53
2022-10-11T14:16:40.319Z,102439.00
2022-10-11T14:19:10.544Z,102440.22
2022-10-11T14:21:43.403Z,102435.28
2022-10-11T14:24:12.985Z,102435.28
2022-10-11T14:26:44.171Z,102432.72
2022-10-11T14:30:23.512Z,102428.28
2022-10-11T14:32:37.307Z,102422.72
2022-10-11T14:35:04.723Z,102419.63
2022-10-11T14:37:31.400Z,102422.91
2022-10-11T14:39:58.257Z,102419.06
2022-10-11T14:42:24.955Z,102425.97
2022-10-11T14:44:51.490Z,102417.88
2022-10-11T14:47:18.523Z,102414.31
2022-10-11T14:49:45.423Z,102412.50
2022-10-11T14:52:13.615Z,102420.31
2022-10-11T14:54:40.775Z,102421.00
2022-10-11T14:57:11.703Z,102420.09
2022-10-11T14:59:38.550Z,102417.47
2022-10-11T15:02:07.413Z,102419.16
2022-10-11T15:04:34.533Z,102409.28
2022-10-11T15:07:01.509Z,102401.44
2022-10-11T15:09:28.698Z,102423.47
2022-10-11T15:11:55.875Z,102414.50
2022-10-11T15:14:23.731Z,102403.53
2022-10-11T15:16:50.463Z,102407.91
2022-10-11T15:19:19.593Z,102419.94
2022-10-11T15:21:46.951Z,102418.63
2022-10-11T15:24:14.289Z,102409.00
2022-10-11T15:26:41.710Z,102414.28
2022-10-11T15:29:11.285Z,102408.75
2022-10-11T15:31:38.428Z,102402.88
2022-10-11T15:34:05.271Z,102395.28
2022-10-11T15:36:32.239Z,102398.75
2022-10-11T15:38:59.158Z,102395.31
2022-10-11T15:41:25.953Z,102396.44
2022-10-11T15:43:53.938Z,102396.00
2022-10-11T15:46:22.337Z,102383.53
2022-10-11T15:48:51.373Z,102376.16
2022-10-11T15:51:18.444Z,102387.28
2022-10-11T15:53:45.204Z,102376.97
2022-10-11T15:56:18.708Z,102375.88
2022-10-11T15:58:45.737Z,102381.97
2022-10-11T16:01:18.767Z,102368.50
2022-10-11T16:03:47.994Z,102376.09
2022-10-11T16:06:14.924Z,102377.94
2022-10-11T16:08:41.885Z,102377.94
2022-10-11T16:11:12.241Z,102383.53
2022-10-11T16:13:39.313Z,102387.31
2022-10-11T16:16:08.856Z,102383.53
2022-10-11T16:18:36.360Z,102378.28
2022-10-11T16:21:08.437Z,102382.25
2022-10-11T16:23:35.766Z,102372.06
2022-10-11T16:26:05.961Z,102377.28
2022-10-11T16:28:33.685Z,102385.78
2022-10-11T16:31:05.269Z,102379.53
2022-10-11T16:33:32.288Z,102373.59
2022-10-11T16:36:18.858Z,102375.09
2022-10-11T16:38:46.099Z,102387.84
2022-10-11T16:41:12.583Z,102389.44
2022-10-11T16:43:39.172Z,102377.69
2022-10-11T16:46:06.028Z,102383.41
2022-10-11T16:48:32.825Z,102378.78
2022-10-11T16:51:07.928Z,102373.50
2022-10-11T16:53:35.472Z,102386.63
2022-10-11T16:56:09.947Z,102393.03
2022-10-11T16:58:36.831Z,102385.03
2022-10-11T17:01:08.811Z,102388.22
2022-10-11T17:03:35.578Z,102391.06
2022-10-11T17:06:02.486Z,102397.16
2022-10-11T17:08:29.330Z,102390.63
2022-10-11T17:10:57.898Z,102385.38
2022-10-11T17:13:25.123Z,102388.63
2022-10-11T17:15:51.965Z,102380.69
2022-10-11T17:18:18.548Z,102389.94
2022-10-11T17:20:45.530Z,102392.84
2022-10-11T17:23:13.244Z,102387.53
2022-10-11T17:25:45.246Z,102382.47
2022-10-11T17:28:12.381Z,102403.47
2022-10-11T17:30:41.772Z,102396.75
2022-10-11T17:33:08.935Z,102401.06
2022-10-11T17:35:35.606Z,102399.84
2022-10-11T17:38:06.173Z,102404.53
2022-10-11T17:40:33.518Z,102398.03
2022-10-11T17:43:00.111Z,102401.59
2022-10-11T17:45:26.753Z,102393.22
2022-10-11T17:47:53.317Z,102401.75
2022-10-11T17:50:19.911Z,102408.81
2022-10-11T17:52:47.104Z,102401.97
2022-10-11T17:55:13.673Z,102400.63
2022-10-11T17:57:40.275Z,102400.38
2022-10-11T18:00:07.717Z,102406.97
2022-10-11T18:02:34.574Z,102383.91
2022-10-11T18:05:01.340Z,102391.06
2022-10-11T18:07:27.933Z,102395.88
2022-10-11T18:09:54.670Z,102393.28
2022-10-11T18:12:21.289Z,102396.69
2022-10-11T18:14:47.945Z,102399.06
2022-10-11T18:17:17.452Z,102407.56
2022-10-11T18:19:44.534Z,102396.06
2022-10-11T18:22:11.166Z,102402.63
2022-10-11T18:24:39.163Z,102397.97
2022-10-11T18:27:05.717Z,102397.69
2022-10-11T18:29:32.460Z,102393.28
2022-10-11T18:31:59.386Z,102395.78
2022-10-11T18:34:26.014Z,102396.31
2022-10-11T18:36:52.563Z,102395.06
2022-10-11T18:39:21.318Z,102388.34
2022-10-11T18:41:48.186Z,102385.84
2022-10-11T18:44:15.806Z,102399.19
2022-10-11T18:46:43.726Z,102391.59
2022-10-11T18:49:12.252Z,102385.00
2022-10-11T18:51:40.845Z,102386.78
2022-10-11T18:54:10.141Z,102391.16
2022-10-11T18:56:37.115Z,102393.47
2022-10-11T18:59:04.952Z,102399.09
2022-10-11T19:01:35.023Z,102390.13
2022-10-11T19:04:02.715Z,102381.06
2022-10-11T19:06:35.624Z,102390.13
2022-10-11T19:09:10.764Z,102378.72
2022-10-11T19:11:38.225Z,102392.06
2022-10-11T19:14:08.327Z,102381.16
2022-10-11T19:16:40.311Z,102372.50
2022-10-11T19:19:08.056Z,102386.00
2022-10-11T19:21:34.633Z,102371.50
2022-10-11T19:24:01.952Z,102364.75
2022-10-11T19:26:33.359Z,102365.84
2022-10-11T19:29:09.250Z,102375.19
2022-10-11T19:31:40.565Z,102372.44
2022-10-11T19:34:07.601Z,102384.25
2022-10-11T19:36:36.833Z,102373.72
2022-10-11T19:39:05.144Z,102377.56
2022-10-11T19:41:32.439Z,102379.72
2022-10-11T19:43:59.226Z,102371.91
2022-10-11T19:46:49.914Z,102376.69
2022-10-11T19:49:17.807Z,102364.69
2022-10-11T19:51:44.626Z,102353.38
2022-10-11T19:54:13.538Z,102362.84
2022-10-11T19:56:40.776Z,102378.56
2022-10-11T19:59:07.462Z,102375.09
2022-10-11T20:01:36.023Z,102380.81
2022-10-11T20:04:05.753Z,102365.00
2022-10-11T20:06:38.627Z,102364.94
2022-10-11T20:09:28.481Z,102379.25
2022-10-11T20:11:56.112Z,102384.25
2022-10-11T20:14:22.757Z,102360.88
2022-10-11T20:16:50.394Z,102386.03
2022-10-11T20:19:17.478Z,102370.34
2022-10-11T20:21:45.041Z,102375.09
2022-10-11T20:24:11.627Z,102384.19
2022-10-11T20:26:39.245Z,102381.59
2022-10-11T20:29:06.606Z,102380.16
2022-10-11T20:31:38.057Z,102392.00
2022-10-11T20:34:07.211Z,102389.06
2022-10-11T20:36:36.436Z,102391.31
2022-10-11T20:39:04.828Z,102388.16
2022-10-11T20:41:34.365Z,102385.25
2022-10-11T20:44:02.693Z,102389.13
2022-10-11T20:46:31.639Z,102386.78
2022-10-11T20:49:02.140Z,102384.66
2022-10-11T20:51:34.751Z,102362.78
2022-10-11T20:54:02.309Z,102368.56
2022-10-11T20:56:29.978Z,102370.25
2022-10-11T20:58:57.948Z,102372.41
2022-10-11T21:01:27.743Z,102385.72
2022-10-11T21:03:57.052Z,102389.19
2022-10-11T21:06:23.690Z,102397.94
2022-10-11T21:08:50.318Z,102373.81
2022-10-11T21:11:16.890Z,102377.97
2022-10-11T21:13:43.839Z,102381.66
2022-10-11T21:16:15.988Z,102388.75
2022-10-11T21:18:42.802Z,102395.72
2022-10-11T21:21:13.577Z,102395.84
2022-10-11T21:23:41.170Z,102390.97
2022-10-11T21:26:13.242Z,102390.97
2022-10-11T21:28:40.723Z,102389.44
2022-10-11T21:31:12.824Z,102390.16
2022-10-11T21:33:41.735Z,102377.53
2022-10-11T21:36:11.382Z,102391.72
2022-10-11T21:38:37.942Z,102386.53
2022-10-11T21:41:06.650Z,102389.94
2022-10-11T21:43:35.109Z,102378.81
2022-10-11T21:46:14.071Z,102385.09
2022-10-11T21:48:40.942Z,102390.28
2022-10-11T21:53:44.368Z,102375.31
2022-10-11T21:56:10.977Z,102379.56
2022-10-11T21:58:37.805Z,102384.88
2022-10-11T22:01:04.445Z,102385.94
2022-10-11T22:03:31.029Z,102381.09
2022-10-11T22:05:57.834Z,102371.97
2022-10-11T22:08:24.515Z,102364.78
2022-10-11T22:10:57.802Z,102367.28
2022-10-11T22:13:28.307Z,102361.13
2022-10-11T22:15:58.407Z,102364.31
2022-10-11T22:18:25.084Z,102358.28
2022-10-11T22:20:51.733Z,102369.28
2022-10-11T22:23:19.165Z,102366.31
2022-10-11T22:25:46.178Z,102367.38
2022-10-11T22:28:12.822Z,102359.81
2022-10-11T22:30:40.784Z,102368.06
2022-10-11T22:33:07.490Z,102370.31
2022-10-11T22:35:37.957Z,102368.53
2022-10-11T22:38:06.212Z,102358.75
2022-10-11T22:40:33.406Z,102356.84
2022-10-11T22:43:00.215Z,102353.16
2022-10-11T22:45:26.910Z,102351.03
2022-10-11T22:47:53.492Z,102361.56
2022-10-11T22:50:22.044Z,102362.25
2022-10-11T22:52:48.938Z,102356.16
2022-10-11T22:55:19.890Z,102354.25
2022-10-11T22:57:46.910Z,102359.19
2022-10-11T23:00:14.956Z,102366.75
2022-10-11T23:02:47.206Z,102358.47
2022-10-11T23:05:14.106Z,102357.31
2022-10-11T23:07:40.818Z,102367.06
2022-10-11T23:10:07.887Z,102368.38
2022-10-11T23:12:37.604Z,102351.25
2022-10-11T23:15:04.811Z,102366.38
2022-10-11T23:17:32.109Z,102358.44
2022-10-11T23:19:58.730Z,102361.59
2022-10-11T23:22:28.616Z,102343.97
2022-10-11T23:24:55.339Z,102359.56
2022-10-11T23:27:21.877Z,102353.19
2022-10-11T23:29:48.473Z,102348.72
2022-10-11T23:32:15.333Z,102341.13
2022-10-11T23:34:42.247Z,102335.50
2022-10-11T23:37:08.842Z,102346.13
2022-10-11T23:39:35.470Z,102337.00
2022-10-11T23:42:01.959Z,102341.13
2022-10-11T23:44:28.815Z,102342.56
2022-10-11T23:46:55.815Z,102337.47
2022-10-11T23:49:22.409Z,102340.34
2022-10-11T23:51:49.009Z,102342.56
2022-10-11T23:54:15.703Z,102345.66
2022-10-11T23:56:42.705Z,102339.66
2022-10-11T23:59:09.840Z,102344.25
